createdAt,value
2023-01-29T00:01:47.438Z,69.66
2023-01-29T00:04:14.120Z,69.34
2023-01-29T00:06:40.629Z,69.70
2023-01-29T00:09:07.377Z,70.06
2023-01-29T00:11:35.141Z,69.93
2023-01-29T00:14:02.045Z,69.52
2023-01-29T00:16:28.695Z,70.03
2023-01-29T00:18:55.350Z,70.12
2023-01-29T00:21:23.119Z,69.57
2023-01-29T00:23:50.745Z,69.56
2023-01-29T00:26:17.952Z,69.90
2023-01-29T00:28:44.724Z,69.23
2023-01-29T00:31:13.588Z,69.00
2023-01-29T00:33:40.538Z,68.71
2023-01-29T00:36:09.720Z,68.51
2023-01-29T00:38:36.478Z,68.70
2023-01-29T00:41:30.225Z,68.77
2023-01-29T00:44:15.512Z,69.06
2023-01-29T00:46:42.360Z,69.14
2023-01-29T00:49:09.350Z,69.54
2023-01-29T00:51:36.964Z,70.53
2023-01-29T00:54:06.814Z,71.02
2023-01-29T00:56:36.652Z,71.84
2023-01-29T00:59:04.646Z,71.91
2023-01-29T01:01:49.922Z,71.83
2023-01-29T01:04:16.524Z,71.87
2023-01-29T01:06:43.698Z,72.17
2023-01-29T01:09:29.813Z,72.57
2023-01-29T01:11:56.372Z,73.06
2023-01-29T01:14:22.952Z,73.22
2023-01-29T01:16:49.922Z,73.14
2023-01-29T01:19:16.866Z,73.02
2023-01-29T01:21:45.577Z,73.61
2023-01-29T01:24:13.103Z,73.58
2023-01-29T01:26:39.780Z,73.91
2023-01-29T01:29:06.808Z,73.90
2023-01-29T01:31:33.537Z,73.70
2023-01-29T01:34:00.170Z,73.58
2023-01-29T01:36:26.812Z,73.55
2023-01-29T01:38:54.188Z,73.37
2023-01-29T01:41:22.471Z,73.40
2023-01-29T01:44:34.262Z,73.66
2023-01-29T01:47:01.828Z,73.38
2023-01-29T01:49:28.385Z,73.32
2023-01-29T01:51:55.037Z,73.43
2023-01-29T01:54:29.276Z,73.90
2023-01-29T01:57:09.416Z,73.20
2023-01-29T01:59:38.722Z,73.76
2023-01-29T02:02:25.323Z,73.96
2023-01-29T02:05:11.422Z,74.08
2023-01-29T02:08:05.102Z,74.50
2023-01-29T02:10:38.327Z,74.40
2023-01-29T02:13:07.115Z,75.46
2023-01-29T02:15:34.073Z,75.97
2023-01-29T02:18:00.715Z,75.64
2023-01-29T02:20:33.518Z,76.01
2023-01-29T02:23:37.213Z,75.96
2023-01-29T02:26:20.644Z,75.91
2023-01-29T02:29:22.300Z,76.42
2023-01-29T02:32:01.308Z,75.78
2023-01-29T02:34:55.252Z,76.31
2023-01-29T02:37:32.713Z,75.91
2023-01-29T02:40:07.471Z,75.72
2023-01-29T02:42:41.053Z,75.93
2023-01-29T02:45:16.036Z,76.22
2023-01-29T02:47:48.584Z,75.87
2023-01-29T02:50:27.568Z,75.83
2023-01-29T02:53:24.302Z,75.34
2023-01-29T02:56:35.125Z,74.59
2023-01-29T02:59:19.335Z,74.48
2023-01-29T03:01:53.752Z,74.76
2023-01-29T03:04:29.259Z,73.82
2023-01-29T03:07:00.711Z,73.25
2023-01-29T03:09:32.972Z,73.76
2023-01-29T03:12:19.955Z,74.33
2023-01-29T03:15:08.554Z,74.05
2023-01-29T03:18:21.470Z,74.19
2023-01-29T03:20:54.065Z,73.52
2023-01-29T03:23:27.284Z,73.98
2023-01-29T03:26:18.010Z,73.90
2023-01-29T03:29:04.792Z,73.83
2023-01-29T03:31:51.702Z,74.05
2023-01-29T03:34:34.613Z,73.31
2023-01-29T03:37:14.336Z,73.39
2023-01-29T03:39:41.268Z,73.68
2023-01-29T03:42:30.042Z,73.61
2023-01-29T03:45:11.720Z,73.65
2023-01-29T03:48:10.713Z,74.72
2023-01-29T03:50:37.097Z,75.42
2023-01-29T03:53:43.978Z,76.05
2023-01-29T03:56:28.851Z,75.54
2023-01-29T03:59:23.175Z,75.83
2023-01-29T04:02:03.563Z,75.52
2023-01-29T04:04:36.884Z,75.01
2023-01-29T04:07:14.692Z,76.12
2023-01-29T04:09:51.509Z,75.98
2023-01-29T04:12:23.433Z,76.49
2023-01-29T04:14:51.568Z,76.70
2023-01-29T04:17:27.919Z,76.02
2023-01-29T04:19:54.686Z,75.00
2023-01-29T04:22:26.486Z,74.87
2023-01-29T04:24:53.490Z,75.25
2023-01-29T04:27:41.218Z,74.57
2023-01-29T04:30:27.159Z,75.54
2023-01-29T04:33:12.169Z,75.19
2023-01-29T04:35:49.348Z,76.06
2023-01-29T04:38:44.816Z,75.47
2023-01-29T04:41:29.364Z,75.98
2023-01-29T04:44:20.766Z,75.73
2023-01-29T04:47:06.286Z,76.26
2023-01-29T04:49:43.554Z,76.01
2023-01-29T04:52:31.220Z,76.82
2023-01-29T04:55:20.374Z,75.66
2023-01-29T04:57:52.881Z,76.48
2023-01-29T05:00:26.011Z,76.14
2023-01-29T05:02:54.035Z,76.98
2023-01-29T05:05:21.274Z,76.68
2023-01-29T05:07:48.838Z,76.87
2023-01-29T05:10:19.652Z,77.43
2023-01-29T05:12:51.379Z,77.75
2023-01-29T05:15:23.388Z,77.64
2023-01-29T05:17:49.943Z,77.85
2023-01-29T05:20:19.843Z,78.05
2023-01-29T05:22:48.249Z,78.14
2023-01-29T05:25:25.114Z,76.90
2023-01-29T05:28:11.875Z,76.79
2023-01-29T05:30:39.907Z,76.69
2023-01-29T05:33:13.854Z,76.38
2023-01-29T05:35:40.469Z,76.92
2023-01-29T05:38:07.290Z,77.68
2023-01-29T05:40:33.855Z,77.19
2023-01-29T05:43:00.474Z,77.40
2023-01-29T05:45:28.574Z,76.78
2023-01-29T05:47:59.737Z,76.79
2023-01-29T05:50:27.282Z,76.63
2023-01-29T05:53:00.885Z,76.05
2023-01-29T05:55:29.664Z,76.17
2023-01-29T05:57:56.283Z,75.87
2023-01-29T06:00:23.167Z,75.83
2023-01-29T06:02:50.133Z,75.68
2023-01-29T06:05:16.825Z,75.65
2023-01-29T06:07:45.613Z,75.89
2023-01-29T06:10:17.672Z,75.44
2023-01-29T06:12:44.844Z,76.26
2023-01-29T06:15:12.899Z,76.33
2023-01-29T06:17:39.412Z,75.75
2023-01-29T06:20:06.586Z,76.30
2023-01-29T06:22:33.948Z,76.40
2023-01-29T06:25:00.754Z,75.99
2023-01-29T06:27:27.385Z,76.31
2023-01-29T06:29:53.960Z,77.54
2023-01-29T06:32:20.564Z,77.97
2023-01-29T06:34:49.466Z,79.41
2023-01-29T06:37:16.132Z,79.25
2023-01-29T06:39:42.690Z,79.55
2023-01-29T06:42:10.030Z,79.48
2023-01-29T06:44:36.960Z,79.74
2023-01-29T06:47:03.918Z,79.91
2023-01-29T06:49:30.533Z,80.00
2023-01-29T06:51:57.392Z,80.12
2023-01-29T06:54:23.986Z,80.21
2023-01-29T06:56:51.494Z,81.11
2023-01-29T06:59:18.211Z,81.63
2023-01-29T07:01:44.947Z,81.21
2023-01-29T07:04:11.685Z,81.26
2023-01-29T07:06:38.345Z,81.45
2023-01-29T07:09:05.194Z,82.45
2023-01-29T07:11:32.238Z,82.10
2023-01-29T07:13:58.779Z,81.52
2023-01-29T07:16:26.457Z,80.71
2023-01-29T07:18:53.285Z,80.38
2023-01-29T07:21:20.020Z,81.38
2023-01-29T07:23:47.281Z,81.08
2023-01-29T07:26:13.940Z,79.54
2023-01-29T07:28:41.168Z,77.93
2023-01-29T07:31:08.880Z,77.79
2023-01-29T07:33:35.610Z,77.05
2023-01-29T07:36:02.715Z,76.34
2023-01-29T07:38:29.308Z,76.44
2023-01-29T07:40:56.157Z,75.91
2023-01-29T07:43:24.864Z,75.02
2023-01-29T07:45:51.977Z,74.63
2023-01-29T07:48:19.113Z,74.39
2023-01-29T07:50:45.911Z,75.58
2023-01-29T07:53:15.129Z,75.19
2023-01-29T07:55:45.835Z,74.38
2023-01-29T07:58:13.184Z,73.88
2023-01-29T08:00:39.780Z,73.97
2023-01-29T08:03:10.796Z,71.67
2023-01-29T08:05:37.955Z,63.61
2023-01-29T08:08:07.374Z,59.96
2023-01-29T08:10:36.238Z,57.91
2023-01-29T08:13:04.943Z,56.69
2023-01-29T08:15:32.262Z,57.07
2023-01-29T08:17:59.013Z,55.70
2023-01-29T08:20:26.209Z,56.53
2023-01-29T08:23:06.212Z,54.68
2023-01-29T08:25:33.679Z,50.26
2023-01-29T08:28:00.975Z,51.91
2023-01-29T08:30:30.087Z,51.71
2023-01-29T08:32:56.776Z,49.86
2023-01-29T08:35:23.541Z,58.03
2023-01-29T08:37:54.540Z,56.48
2023-01-29T08:40:24.093Z,57.17
2023-01-29T08:43:06.167Z,56.86
2023-01-29T08:45:36.054Z,58.62
2023-01-29T08:48:02.924Z,57.06
2023-01-29T08:50:30.865Z,56.28
2023-01-29T08:53:02.616Z,53.66
2023-01-29T08:55:29.704Z,46.40
2023-01-29T08:57:59.395Z,48.44
2023-01-29T09:00:26.324Z,52.14
2023-01-29T09:02:52.916Z,54.26
2023-01-29T09:05:20.074Z,53.11
2023-01-29T09:07:46.958Z,54.49
2023-01-29T09:10:22.603Z,55.05
2023-01-29T09:12:49.208Z,50.57
2023-01-29T09:15:16.038Z,46.06
2023-01-29T09:17:43.204Z,46.17
2023-01-29T09:20:10.604Z,51.91
2023-01-29T09:22:38.629Z,44.32
2023-01-29T09:25:05.733Z,53.37
2023-01-29T09:27:32.359Z,47.42
2023-01-29T09:29:58.946Z,49.75
2023-01-29T09:32:51.695Z,54.99
2023-01-29T09:35:12.209Z,50.67
2023-01-29T09:37:38.824Z,49.75
2023-01-29T09:40:08.399Z,46.03
2023-01-29T09:42:48.664Z,52.49
2023-01-29T09:45:25.935Z,44.39
2023-01-29T09:47:58.534Z,45.24
2023-01-29T09:50:40.205Z,43.89
2023-01-29T09:53:46.443Z,48.38
2023-01-29T09:56:19.360Z,49.98
2023-01-29T09:58:46.127Z,43.27
2023-01-29T10:01:37.268Z,41.15
2023-01-29T10:04:13.008Z,48.24
2023-01-29T10:06:54.920Z,41.85
2023-01-29T10:09:47.746Z,46.13
2023-01-29T10:12:40.579Z,44.71
2023-01-29T10:15:41.442Z,43.78
2023-01-29T10:18:26.684Z,42.68
2023-01-29T10:21:28.685Z,46.60
2023-01-29T10:24:22.169Z,48.75
2023-01-29T10:26:50.992Z,46.24
2023-01-29T10:29:19.775Z,50.21
2023-01-29T10:31:51.044Z,46.09
2023-01-29T10:34:26.415Z,42.53
2023-01-29T10:36:55.954Z,43.75
2023-01-29T10:39:25.336Z,49.07
2023-01-29T10:41:58.832Z,46.72
2023-01-29T10:44:46.144Z,43.16
2023-01-29T10:47:41.748Z,44.26
2023-01-29T10:50:34.759Z,42.39
2023-01-29T10:53:14.417Z,44.79
2023-01-29T10:55:54.641Z,47.56
2023-01-29T10:58:49.153Z,44.35
2023-01-29T11:01:16.047Z,48.69
2023-01-29T11:03:42.735Z,43.61
2023-01-29T11:06:18.043Z,44.93
2023-01-29T11:09:01.472Z,44.97
2023-01-29T11:11:36.712Z,45.85
2023-01-29T11:14:13.437Z,45.09
2023-01-29T11:16:42.784Z,45.32
2023-01-29T11:19:09.992Z,47.61
2023-01-29T11:21:56.609Z,46.12
2023-01-29T11:24:24.056Z,47.71
2023-01-29T11:26:54.379Z,45.42
2023-01-29T11:29:45.506Z,45.76
2023-01-29T11:32:22.986Z,45.96
2023-01-29T11:35:18.864Z,46.07
2023-01-29T11:37:46.955Z,45.41
2023-01-29T11:40:22.509Z,46.64
2023-01-29T11:42:50.364Z,44.95
2023-01-29T11:45:32.450Z,44.96
2023-01-29T11:48:00.427Z,46.38
2023-01-29T11:50:33.400Z,44.62
2023-01-29T11:53:00.440Z,45.12
2023-01-29T11:55:44.350Z,44.14
2023-01-29T11:58:21.357Z,44.05
2023-01-29T12:00:52.140Z,43.85
2023-01-29T12:03:52.118Z,43.30
2023-01-29T12:06:23.191Z,42.68
2023-01-29T12:08:59.704Z,43.71
2023-01-29T12:11:32.002Z,44.88
2023-01-29T12:14:04.658Z,44.40
2023-01-29T12:16:38.527Z,44.06
2023-01-29T12:19:27.478Z,43.86
2023-01-29T12:22:03.748Z,44.27
2023-01-29T12:25:09.679Z,42.70
2023-01-29T12:27:54.702Z,42.74
2023-01-29T12:30:30.052Z,43.24
2023-01-29T12:33:02.670Z,42.88
2023-01-29T12:36:00.031Z,43.42
2023-01-29T12:38:26.786Z,42.35
2023-01-29T12:41:21.572Z,43.66
2023-01-29T12:43:59.154Z,43.76
2023-01-29T12:46:30.384Z,44.20
2023-01-29T12:49:06.792Z,43.00
2023-01-29T12:51:49.209Z,43.70
2023-01-29T12:54:23.344Z,43.64
2023-01-29T12:56:58.366Z,43.31
2023-01-29T12:59:31.434Z,43.95
2023-01-29T13:02:16.320Z,44.55
2023-01-29T13:04:48.648Z,45.81
2023-01-29T13:07:28.257Z,46.18
2023-01-29T13:10:04.060Z,47.47
2023-01-29T13:12:31.921Z,47.15
2023-01-29T13:15:17.615Z,47.26
2023-01-29T13:17:49.094Z,48.41
2023-01-29T13:20:28.540Z,49.61
2023-01-29T13:23:02.227Z,49.33
2023-01-29T13:25:28.864Z,49.06
2023-01-29T13:27:58.075Z,49.31
2023-01-29T13:30:33.423Z,48.96
2023-01-29T13:33:10.622Z,48.85
2023-01-29T13:35:41.857Z,49.27
2023-01-29T13:38:33.463Z,49.84
2023-01-29T13:41:06.455Z,50.34
2023-01-29T13:43:37.574Z,50.29
2023-01-29T13:46:21.539Z,50.11
2023-01-29T13:48:51.040Z,51.07
2023-01-29T13:51:21.929Z,51.54
2023-01-29T13:54:00.870Z,51.36
2023-01-29T13:56:33.196Z,51.29
2023-01-29T13:59:01.685Z,51.03
2023-01-29T14:01:46.559Z,52.52
2023-01-29T14:04:21.897Z,53.13
2023-01-29T14:06:54.977Z,52.90
2023-01-29T14:09:37.576Z,51.64
2023-01-29T14:12:24.414Z,52.43
2023-01-29T14:14:56.999Z,52.51
2023-01-29T14:17:26.409Z,53.16
2023-01-29T14:20:20.746Z,53.13
2023-01-29T14:22:56.459Z,53.08
2023-01-29T14:25:29.935Z,53.32
2023-01-29T14:27:58.914Z,53.29
2023-01-29T14:30:27.237Z,53.79
2023-01-29T14:32:55.019Z,53.96
2023-01-29T14:35:30.403Z,53.81
2023-01-29T14:38:04.794Z,54.11
2023-01-29T14:40:32.674Z,54.11
2023-01-29T14:43:19.957Z,55.13
2023-01-29T14:45:48.689Z,53.98
2023-01-29T14:48:46.549Z,55.02
2023-01-29T14:51:15.407Z,54.86
2023-01-29T14:54:14.389Z,54.79
2023-01-29T14:56:48.702Z,54.94
2023-01-29T14:59:38.035Z,55.07
2023-01-29T15:02:37.137Z,54.98
2023-01-29T15:05:10.927Z,55.41
2023-01-29T15:07:52.356Z,55.81
2023-01-29T15:10:27.445Z,55.67
2023-01-29T15:13:15.841Z,55.27
2023-01-29T15:16:02.627Z,55.28
2023-01-29T15:18:40.036Z,55.94
2023-01-29T15:21:15.359Z,56.37
2023-01-29T15:23:43.388Z,56.02
2023-01-29T15:26:16.353Z,57.07
2023-01-29T15:28:47.091Z,57.18
2023-01-29T15:31:18.537Z,57.82
2023-01-29T15:33:48.257Z,58.56
2023-01-29T15:36:23.475Z,57.85
2023-01-29T15:39:15.307Z,58.87
2023-01-29T15:41:42.754Z,59.36
2023-01-29T15:44:29.608Z,59.68
2023-01-29T15:47:00.584Z,58.95
2023-01-29T15:49:34.137Z,59.13
2023-01-29T15:52:23.964Z,61.22
2023-01-29T15:54:51.389Z,60.21
2023-01-29T15:57:29.490Z,61.18
2023-01-29T15:59:58.582Z,62.48
2023-01-29T16:02:29.696Z,62.66
2023-01-29T16:04:56.668Z,62.46
2023-01-29T16:07:23.410Z,63.32
2023-01-29T16:09:52.369Z,63.38
2023-01-29T16:12:19.383Z,63.75
2023-01-29T16:14:46.558Z,64.56
2023-01-29T16:17:30.070Z,64.22
2023-01-29T16:19:59.271Z,64.89
2023-01-29T16:22:31.350Z,64.17
2023-01-29T16:25:05.333Z,65.67
2023-01-29T16:27:33.502Z,66.78
2023-01-29T16:30:02.199Z,66.58
2023-01-29T16:32:30.576Z,67.27
2023-01-29T16:35:00.922Z,67.80
2023-01-29T16:37:29.687Z,68.38
2023-01-29T16:39:56.743Z,68.25
2023-01-29T16:42:31.230Z,68.30
2023-01-29T16:45:05.171Z,68.36
2023-01-29T16:47:43.419Z,69.24
2023-01-29T16:50:46.435Z,69.05
2023-01-29T16:53:23.356Z,70.21
2023-01-29T16:55:52.560Z,70.13
2023-01-29T16:58:26.051Z,70.96
2023-01-29T17:00:59.507Z,70.58
2023-01-29T17:03:28.859Z,70.68
2023-01-29T17:05:55.473Z,72.05
2023-01-29T17:08:34.160Z,72.17
2023-01-29T17:11:01.608Z,71.96
2023-01-29T17:13:43.775Z,71.47
2023-01-29T17:16:19.328Z,71.31
2023-01-29T17:18:45.926Z,71.91
2023-01-29T17:21:12.528Z,72.20
2023-01-29T17:23:39.799Z,72.40
2023-01-29T17:26:09.863Z,72.41
2023-01-29T17:28:36.512Z,72.38
2023-01-29T17:31:06.627Z,73.17
2023-01-29T17:33:35.419Z,73.10
2023-01-29T17:36:02.016Z,72.83
2023-01-29T17:38:28.879Z,73.56
2023-01-29T17:41:03.011Z,74.50
2023-01-29T17:43:29.576Z,74.83
2023-01-29T17:45:56.219Z,74.72
2023-01-29T17:48:25.196Z,75.79
2023-01-29T17:50:54.032Z,75.01
2023-01-29T17:53:22.705Z,75.35
2023-01-29T17:55:50.231Z,75.28
2023-01-29T17:58:20.862Z,75.25
2023-01-29T18:00:48.792Z,75.58
2023-01-29T18:03:16.032Z,76.03
2023-01-29T18:05:48.227Z,76.27
2023-01-29T18:08:26.959Z,76.62
2023-01-29T18:10:53.519Z,76.44
2023-01-29T18:13:20.086Z,76.02
2023-01-29T18:15:46.688Z,76.93
2023-01-29T18:18:20.040Z,76.73
2023-01-29T18:20:46.931Z,76.78
2023-01-29T18:23:13.577Z,77.10
2023-01-29T18:25:40.482Z,77.76
2023-01-29T18:28:07.567Z,77.98
2023-01-29T18:30:34.298Z,77.68
2023-01-29T18:33:00.965Z,76.75
2023-01-29T18:35:27.962Z,77.21
2023-01-29T18:37:55.052Z,78.30
2023-01-29T18:40:21.649Z,78.76
2023-01-29T18:42:48.205Z,79.10
2023-01-29T18:45:16.112Z,78.09
2023-01-29T18:47:42.968Z,78.30
2023-01-29T18:50:10.988Z,79.27
2023-01-29T18:52:37.631Z,79.68
2023-01-29T18:55:04.600Z,81.29
2023-01-29T18:58:24.633Z,81.06
2023-01-29T19:00:18.627Z,81.52
2023-01-29T19:02:45.874Z,81.72
2023-01-29T19:05:12.542Z,81.73
2023-01-29T19:07:39.097Z,81.36
2023-01-29T19:10:09.195Z,81.76
2023-01-29T19:12:35.805Z,81.92
2023-01-29T19:15:02.344Z,82.33
2023-01-29T19:17:28.997Z,82.42
2023-01-29T19:20:01.911Z,82.57
2023-01-29T19:22:29.448Z,82.36
2023-01-29T19:24:55.962Z,81.97
2023-01-29T19:27:22.578Z,81.91
2023-01-29T19:29:49.217Z,81.70
2023-01-29T19:32:16.002Z,83.29
2023-01-29T19:34:42.578Z,83.73
2023-01-29T19:37:09.163Z,84.17
2023-01-29T19:39:35.673Z,84.16
2023-01-29T19:42:02.326Z,84.26
2023-01-29T19:44:29.085Z,84.13
2023-01-29T19:46:55.876Z,83.76
2023-01-29T19:49:22.504Z,83.92
2023-01-29T19:51:49.085Z,84.07
2023-01-29T19:54:16.044Z,84.71
2023-01-29T19:56:42.648Z,84.99
2023-01-29T19:59:10.861Z,84.51
2023-01-29T20:01:37.546Z,84.86
2023-01-29T20:04:04.702Z,84.81
2023-01-29T20:06:38.180Z,85.29
2023-01-29T20:09:05.497Z,85.09
2023-01-29T20:11:47.707Z,85.50
2023-01-29T20:14:22.513Z,85.23
2023-01-29T20:16:59.545Z,84.79
2023-01-29T20:19:26.095Z,84.76
2023-01-29T20:21:52.718Z,85.33
2023-01-29T20:24:23.553Z,85.77
2023-01-29T20:26:50.279Z,85.28
2023-01-29T20:29:16.944Z,84.74
2023-01-29T20:31:43.530Z,85.68
2023-01-29T20:34:10.275Z,85.28
2023-01-29T20:36:36.860Z,85.73
2023-01-29T20:39:03.652Z,85.92
2023-01-29T20:41:30.345Z,86.36
2023-01-29T20:43:56.955Z,86.40
2023-01-29T20:46:23.539Z,86.05
2023-01-29T20:48:53.214Z,86.47
2023-01-29T20:51:20.220Z,87.59
2023-01-29T20:53:48.022Z,88.43
2023-01-29T20:56:16.427Z,88.49
2023-01-29T20:58:43.481Z,88.71
2023-01-29T21:01:16.633Z,87.97
2023-01-29T21:03:43.358Z,88.32
2023-01-29T21:06:11.326Z,88.34
2023-01-29T21:08:38.827Z,88.62
2023-01-29T21:11:07.695Z,89.07
2023-01-29T21:13:34.683Z,89.38
2023-01-29T21:16:02.425Z,89.55
2023-01-29T21:18:29.316Z,90.48
2023-01-29T21:20:58.851Z,91.44
2023-01-29T21:23:25.483Z,91.34
2023-01-29T21:25:52.077Z,90.72
2023-01-29T21:28:18.669Z,90.98
2023-01-29T21:30:45.343Z,90.54
2023-01-29T21:33:11.944Z,91.16
2023-01-29T21:35:38.538Z,91.00
2023-01-29T21:38:05.176Z,90.25
2023-01-29T21:40:32.384Z,90.49
2023-01-29T21:43:15.512Z,90.74
2023-01-29T21:45:43.075Z,90.48
2023-01-29T21:48:11.181Z,90.35
2023-01-29T21:50:38.425Z,90.21
2023-01-29T21:53:05.145Z,90.47
2023-01-29T21:55:32.515Z,90.97
2023-01-29T21:58:00.299Z,90.61
2023-01-29T22:00:27.241Z,90.72
2023-01-29T22:02:53.854Z,90.91
2023-01-29T22:05:20.603Z,91.16
2023-01-29T22:07:48.738Z,91.59
2023-01-29T22:10:17.598Z,92.22
2023-01-29T22:12:44.872Z,92.23
2023-01-29T22:15:12.370Z,93.12
2023-01-29T22:17:41.224Z,92.83
2023-01-29T22:20:12.325Z,92.89
2023-01-29T22:22:38.882Z,92.26
2023-01-29T22:25:05.931Z,92.39
2023-01-29T22:27:33.833Z,92.34
2023-01-29T22:30:00.520Z,92.53
2023-01-29T22:32:27.271Z,92.79
2023-01-29T22:34:53.825Z,92.66
2023-01-29T22:37:20.349Z,92.88
2023-01-29T22:39:47.047Z,93.05
2023-01-29T22:42:13.578Z,93.29
2023-01-29T22:44:40.265Z,93.85
2023-01-29T22:47:06.828Z,93.66
2023-01-29T22:49:33.411Z,93.64
2023-01-29T22:52:25.758Z,94.05
2023-01-29T22:54:52.340Z,94.30
2023-01-29T22:57:19.786Z,94.64
2023-01-29T22:59:46.444Z,95.14
2023-01-29T23:02:14.101Z,95.27
2023-01-29T23:04:40.983Z,95.41
2023-01-29T23:07:07.834Z,95.46
2023-01-29T23:09:34.404Z,95.92
2023-01-29T23:12:01.394Z,95.09
2023-01-29T23:14:28.035Z,94.90
2023-01-29T23:16:55.139Z,95.02
2023-01-29T23:19:21.882Z,94.78
2023-01-29T23:21:48.497Z,95.54
2023-01-29T23:24:15.217Z,95.43
2023-01-29T23:27:00.676Z,96.00
2023-01-29T23:29:27.244Z,95.32
2023-01-29T23:31:53.803Z,95.90
2023-01-29T23:34:20.980Z,96.21
2023-01-29T23:49:43.674Z,86.58
2023-01-29T23:52:10.291Z,91.51
2023-01-29T23:54:38.090Z,92.31
2023-01-29T23:57:04.674Z,92.44
2023-01-29T23:59:31.252Z,94.14
